Harman, Virginia
Current Conditions -  °F | °C
As of 11:15 PM on Wednesday 22 Oct 2014 (Local Time) from KJFZ Reporting Station
Haze Haze  
Wind Chill: 41°   Ceiling: 300
Heat Index: 45°   Visibility: 5mi
Dew Point: 43°   Wind: 6mph
Humidity: 95%   Direction: 340°NNW
Pressure: 30.19"   Gusts: NA
Location:  37.29°N, 82.2°W
Report Text: KJFZ 230315Z AUTO 34005KT 5SM BR OVC003 07/06 A3019 RMK AO2 T00700062
Loading
Personal Weather Stations






























Interactive Weather Map
Tropical Storm Tracking
New forecast layout! Learn more

10-Day Weather Forecast

Advertisements
Track Severe Weather on mobile